Saint Marys, Maryland
Current Conditions -  °F | °C
As of 6:53 PM on Monday 20 Oct 2014 (Local Time) from KNUI Reporting Station
Clear Clear  
Wind Chill: 62°   Ceiling: Unl
Heat Index: 62°   Visibility: 10mi
Dew Point: 40°   Wind: 7mph
Humidity: 44%   Direction: 180°S
Pressure: 29.97"   Gusts: NA
Location:  38.1867°N, 76.4348°W
Report Text: KNUI 202253Z AUTO 18006KT 10SM CLR 17/04 A2997 RMK AO2 SLP149 T01670044
Loading
Personal Weather Stations






























Interactive Weather Map
Tropical Storm Tracking
New forecast layout! Learn more

10-Day Weather Forecast

Advertisements
Track Severe Weather on mobile